EGQL TAF 170128Z 1703/1712 19012KT 9999 BKN025 TEMPO 1703/1705 BKN020 PROB40 TEMPO 1709/1712 20018G28KT